Time;durP1;ratioP1;P1;durP2;ratioP2;P2;SDS_P1;SDS_P2;PMS_P1;PMS_P2;Temp;Humidity;BMP_temperature;BMP_pressure;BME280_temperature;BME280_humidity;BME280_pressure;Samples;Min_cycle;Max_cycle;Signal;HPM_P1;HPM_P2
2021/08/13 00:02:10;79753.00;0.27;138.61;0.00;0.00;0.62;;;;;25.40;1.00;;;;;;2278245;61;1140;-83
2021/08/13 00:04:38;254865.00;0.85;440.32;15296.00;0.05;27.12;;;;;25.40;1.00;;;;;;2270159;61;2017;-83
2021/08/13 00:07:05;404927.00;1.35;698.28;52471.00;0.17;91.46;;;;;25.40;1.00;;;;;;2278535;61;1128;-82
2021/08/13 00:09:33;159493.00;0.53;276.17;0.00;0.00;0.62;;;;;25.40;1.00;;;;;;2282242;61;1196;-83
2021/08/13 00:12:00;159609.00;0.53;276.37;0.00;0.00;0.62;;;;;25.30;1.00;;;;;;2277355;61;972;-82
2021/08/13 00:14:28;90310.00;0.30;156.84;0.00;0.00;0.62;;;;;25.30;1.00;;;;;;2282888;61;1273;-82
2021/08/13 00:16:55;171776.00;0.57;297.33;0.00;0.00;0.62;;;;;25.20;1.00;;;;;;2280395;61;1168;-82
2021/08/13 00:19:22;27427.00;0.09;48.13;0.00;0.00;0.62;;;;;25.10;1.00;;;;;;2280156;61;1259;-82
2021/08/13 00:21:49;106668.00;0.36;185.08;0.00;0.00;0.62;;;;;25.00;1.00;;;;;;2280440;61;1119;-82
2021/08/13 00:24:16;20821.00;0.07;36.69;0.00;0.00;0.62;;;;;25.20;1.00;;;;;;2278786;61;1434;-83
2021/08/13 00:26:45;252000.00;0.84;435.39;0.00;0.00;0.62;;;;;25.10;1.00;;;;;;2279620;61;2041;-83
2021/08/13 00:29:12;155003.00;0.52;268.43;0.00;0.00;0.62;;;;;25.10;1.00;;;;;;2278761;61;1192;-83
2021/08/13 00:31:39;109079.00;0.36;189.24;0.00;0.00;0.62;;;;;25.20;1.00;;;;;;2279041;61;1245;-83
2021/08/13 00:34:06;244500.00;0.81;422.49;0.00;0.00;0.62;;;;;25.10;1.00;;;;;;2279150;61;1353;-83
2021/08/13 00:36:33;168068.00;0.56;290.94;0.00;0.00;0.62;;;;;25.00;1.00;;;;;;2279476;61;1103;-83
2021/08/13 00:39:02;130769.00;0.44;226.66;0.00;0.00;0.62;;;;;24.90;1.00;;;;;;2279452;61;1132;-83
2021/08/13 00:41:29;159375.00;0.53;275.96;0.00;0.00;0.62;;;;;24.80;1.00;;;;;;2278802;61;1149;-83
2021/08/13 00:43:57;152178.00;0.51;263.56;0.00;0.00;0.62;;;;;24.80;1.00;;;;;;2279975;61;1403;-83
2021/08/13 00:46:24;92232.00;0.31;160.16;0.00;0.00;0.62;;;;;24.90;1.00;;;;;;2279180;61;1930;-82
2021/08/13 00:48:51;155364.00;0.52;269.05;0.00;0.00;0.62;;;;;24.90;1.00;;;;;;2278924;61;1140;-83
2021/08/13 00:51:19;142751.00;0.48;247.31;0.00;0.00;0.62;;;;;24.90;1.00;;;;;;2279142;61;1140;-82
2021/08/13 00:53:46;404083.00;1.35;696.82;69287.00;0.23;120.53;;;;;25.00;1.00;;;;;;2278159;60;1365;-82
2021/08/13 00:56:13;117292.00;0.39;203.41;0.00;0.00;0.62;;;;;25.00;1.00;;;;;;2278846;61;1184;-82
2021/08/13 00:58:40;29367.00;0.10;51.49;0.00;0.00;0.62;;;;;25.10;1.00;;;;;;2275042;61;1172;-82
2021/08/13 01:01:10;65325.00;0.22;113.68;0.00;0.00;0.62;;;;;25.20;1.00;;;;;;2278791;61;1231;-82
2021/08/13 01:03:39;323107.00;1.08;557.64;71760.00;0.24;124.80;;;;;25.20;1.00;;;;;;2278316;61;1444;-82
2021/08/13 01:06:07;310590.00;1.04;536.12;0.00;0.00;0.62;;;;;25.30;1.00;;;;;;2278520;61;2016;-82
2021/08/13 01:08:34;0.00;0.00;0.62;0.00;0.00;0.62;;;;;25.30;1.00;;;;;;2278714;61;1255;-82
2021/08/13 01:11:09;175393.00;0.58;303.56;0.00;0.00;0.62;;;;;25.30;1.00;;;;;;2278790;61;1188;-82
2021/08/13 01:13:51;85096.00;0.28;147.84;0.00;0.00;0.62;;;;;25.20;1.00;;;;;;2273921;61;1395;-82
2021/08/13 01:16:21;112576.00;0.38;195.27;13097.00;0.04;23.31;;;;;25.10;1.00;;;;;;2278400;61;1683;-82
2021/08/13 01:18:52;0.00;0.00;0.62;0.00;0.00;0.62;;;;;24.90;1.00;;;;;;2282928;60;1051;-82
2021/08/13 01:21:44;32009.00;0.11;56.06;0.00;0.00;0.62;;;;;24.80;1.00;;;;;;2278774;60;1234;-82
2021/08/13 01:24:15;15506.00;0.05;27.49;0.00;0.00;0.62;;;;;24.50;1.00;;;;;;2282854;60;1359;-82
2021/08/13 01:26:48;401023.00;1.34;691.56;191271.00;0.64;330.90;;;;;24.30;1.00;;;;;;2288874;60;1994;-85
2021/08/13 01:29:35;0.00;0.00;0.62;0.00;0.00;0.62;;;;;24.10;1.00;;;;;;2288915;60;1032;-85
2021/08/13 01:32:34;90358.00;0.30;156.93;0.00;0.00;0.62;;;;;24.00;1.00;;;;;;2282257;60;1179;-82
2021/08/13 01:35:05;31445.00;0.10;55.08;0.00;0.00;0.62;;;;;24.00;1.00;;;;;;2282866;60;1393;-82
2021/08/13 01:37:35;145064.00;0.48;251.30;0.00;0.00;0.62;;;;;24.00;1.00;;;;;;2282239;60;1033;-83
2021/08/13 01:40:05;0.00;0.00;0.62;0.00;0.00;0.62;;;;;24.10;1.00;;;;;;2277679;60;1235;-82
2021/08/13 01:42:34;70313.00;0.23;122.30;0.00;0.00;0.62;;;;;24.10;1.00;;;;;;2282218;60;1252;-82
2021/08/13 01:45:03;178699.00;0.60;309.25;30848.00;0.10;54.05;;;;;24.30;1.00;;;;;;2282146;60;2004;-82
2021/08/13 01:47:33;0.00;0.00;0.62;0.00;0.00;0.62;;;;;24.30;1.00;;;;;;2278430;60;1110;-82
2021/08/13 01:50:01;38570.00;0.13;67.41;0.00;0.00;0.62;;;;;24.50;1.00;;;;;;2282880;60;1191;-82
2021/08/13 01:52:30;104117.00;0.35;180.68;0.00;0.00;0.62;;;;;24.70;1.00;;;;;;2282860;60;1191;-83
2021/08/13 01:54:58;278709.00;0.93;481.32;96062.00;0.32;166.77;;;;;24.80;1.00;;;;;;2282594;60;1346;-82
2021/08/13 01:57:26;16011.00;0.05;28.36;0.00;0.00;0.62;;;;;24.60;1.00;;;;;;2283077;60;996;-83
2021/08/13 01:59:54;0.00;0.00;0.62;0.00;0.00;0.62;;;;;24.70;1.00;;;;;;2282648;60;1243;-82
2021/08/13 02:02:21;462798.00;1.54;797.80;97276.00;0.32;168.87;;;;;24.60;1.00;;;;;;2281737;60;1173;-82
2021/08/13 02:04:52;0.00;0.00;0.62;0.00;0.00;0.62;;;;;24.60;1.00;;;;;;2278435;60;1451;-83
2021/08/13 02:07:20;32966.00;0.11;57.72;0.00;0.00;0.62;;;;;24.70;1.00;;;;;;2282633;60;1954;-83
2021/08/13 02:09:48;74150.00;0.25;128.93;0.00;0.00;0.62;;;;;24.80;1.00;;;;;;2281988;60;1226;-83
2021/08/13 02:12:15;96258.00;0.32;167.11;0.00;0.00;0.62;;;;;24.90;1.00;;;;;;2282566;60;1297;-83
2021/08/13 02:14:42;80990.00;0.27;140.75;0.00;0.00;0.62;;;;;24.90;1.00;;;;;;2282178;60;1352;-82
2021/08/13 02:17:17;116795.00;0.39;202.55;0.00;0.00;0.62;;;;;24.90;1.00;;;;;;2277649;61;1223;-82
2021/08/13 02:19:49;0.00;0.00;0.62;0.00;0.00;0.62;;;;;24.70;1.00;;;;;;2277475;61;1236;-83
2021/08/13 02:22:18;96976.00;0.32;168.35;0.00;0.00;0.62;;;;;24.70;1.00;;;;;;2277526;61;1164;-82
2021/08/13 02:24:45;118311968.00;394.37;67084724.00;0.00;0.00;0.62;;;;;24.70;1.00;;;;;;2276973;61;1378;-82
2021/08/13 02:27:12;1839.00;0.01;3.81;0.00;0.00;0.62;;;;;24.60;1.00;;;;;;2277083;61;1940;-82
2021/08/13 02:29:39;95660.00;0.32;166.08;6618.00;0.02;12.09;;;;;24.70;1.00;;;;;;2276957;61;1254;-82
2021/08/13 02:32:07;0.00;0.00;0.62;0.00;0.00;0.62;;;;;24.70;1.00;;;;;;2276824;61;1252;-82
2021/08/13 02:34:34;0.00;0.00;0.62;0.00;0.00;0.62;;;;;24.70;1.00;;;;;;2277790;60;1366;-82
2021/08/13 02:37:11;29243.00;0.10;51.27;0.00;0.00;0.62;;;;;24.50;1.00;;;;;;2282037;60;1160;-82
2021/08/13 02:39:46;0.00;0.00;0.62;0.00;0.00;0.62;;;;;24.50;1.00;;;;;;2281710;60;1136;-82
2021/08/13 02:42:19;37828.00;0.13;66.13;0.00;0.00;0.62;;;;;24.70;1.00;;;;;;2277588;60;1254;-82
2021/08/13 02:44:52;95223.00;0.32;165.33;0.00;0.00;0.62;;;;;24.70;1.00;;;;;;2281801;60;1398;-83
2021/08/13 02:47:20;0.00;0.00;0.62;0.00;0.00;0.62;;;;;24.50;1.00;;;;;;2281922;60;2006;-82
2021/08/13 02:49:54;173174.00;0.58;299.73;23728.00;0.08;41.73;;;;;24.20;1.00;;;;;;2282166;60;1131;-83
2021/08/13 02:52:28;233342.00;0.78;403.30;11308.00;0.04;20.22;;;;;24.10;1.00;;;;;;2281852;60;1176;-83
2021/08/13 02:55:01;399125.00;1.33;688.30;166890.00;0.56;288.91;;;;;23.80;1.00;;;;;;2282252;60;1476;-83
2021/08/13 02:57:33;19991.00;0.07;35.25;0.00;0.00;0.62;;;;;23.70;1.00;;;;;;2282039;60;1171;-83
2021/08/13 03:00:03;288284.00;0.96;497.78;78011.00;0.26;135.60;;;;;23.80;1.00;;;;;;2281754;60;1241;-83
2021/08/13 03:02:32;0.00;0.00;0.62;0.00;0.00;0.62;;;;;23.80;1.00;;;;;;2282071;60;1176;-83
2021/08/13 03:05:01;26307.00;0.09;46.19;0.00;0.00;0.62;;;;;23.70;1.00;;;;;;2282334;60;1390;-83
2021/08/13 03:07:29;0.00;0.00;0.62;0.00;0.00;0.62;;;;;23.90;1.00;;;;;;2277526;60;2001;-83
2021/08/13 03:09:58;0.00;0.00;0.62;0.00;0.00;0.62;;;;;23.90;1.00;;;;;;2282065;60;1128;-83
2021/08/13 03:12:27;13598.00;0.05;24.18;0.00;0.00;0.62;;;;;23.90;1.00;;;;;;2285279;60;1266;-83
2021/08/13 03:14:54;476560.00;1.59;821.48;197306.00;0.66;341.29;;;;;24.00;1.00;;;;;;2281624;60;1449;-83
2021/08/13 03:17:22;99789.00;0.33;173.21;34162.00;0.11;59.79;;;;;24.10;1.00;;;;;;2285856;60;1104;-83
2021/08/13 03:19:50;0.00;0.00;0.62;0.00;0.00;0.62;;;;;24.20;1.00;;;;;;2285155;60;1171;-83
2021/08/13 03:22:19;90560.00;0.30;157.27;13094.00;0.04;23.31;;;;;24.40;1.00;;;;;;2278816;60;1220;-83
2021/08/13 03:24:47;0.00;0.00;0.62;0.00;0.00;0.62;;;;;24.50;1.00;;;;;;2282107;60;1453;-83
2021/08/13 03:27:17;179564.00;0.60;310.74;0.00;0.00;0.62;;;;;24.20;1.00;;;;;;2281049;60;1919;-83
2021/08/13 03:29:45;21789.00;0.07;38.37;0.00;0.00;0.62;;;;;23.90;1.00;;;;;;2282216;60;941;-83
2021/08/13 03:32:12;229115.00;0.76;396.03;60249.00;0.20;104.91;;;;;23.70;1.00;;;;;;2281547;60;1880;-83
2021/08/13 03:34:39;44821.00;0.15;78.23;0.00;0.00;0.62;;;;;23.80;1.00;;;;;;2281713;60;1349;-83
2021/08/13 03:37:06;25575.00;0.09;44.92;0.00;0.00;0.62;;;;;24.00;1.00;;;;;;2281576;60;1156;-83
2021/08/13 03:39:33;0.00;0.00;0.62;0.00;0.00;0.62;;;;;23.80;1.00;;;;;;2281898;60;1160;-83
2021/08/13 03:41:59;17125.00;0.06;30.29;0.00;0.00;0.62;;;;;24.00;1.00;;;;;;2282280;60;1240;-83
2021/08/13 03:44:28;67817.00;0.23;117.99;0.00;0.00;0.62;;;;;24.00;1.00;;;;;;2282708;60;1338;-83
2021/08/13 03:46:55;140678.00;0.47;243.74;0.00;0.00;0.62;;;;;24.10;1.00;;;;;;2282217;60;1994;-83
2021/08/13 03:49:22;119826.00;0.40;207.78;0.00;0.00;0.62;;;;;24.00;1.00;;;;;;2281839;60;1175;-83
2021/08/13 03:51:49;131571.00;0.44;228.04;0.00;0.00;0.62;;;;;24.00;1.00;;;;;;2281715;60;1168;-83
2021/08/13 03:54:15;109766.00;0.37;190.43;0.00;0.00;0.62;;;;;24.20;1.00;;;;;;2281042;60;1369;-83
2021/08/13 03:56:42;84988.00;0.28;147.65;0.00;0.00;0.62;;;;;24.00;1.00;;;;;;2281741;60;1246;-83
2021/08/13 03:59:09;0.00;0.00;0.62;0.00;0.00;0.62;;;;;23.80;1.00;;;;;;2281360;60;1113;-82
2021/08/13 04:01:37;0.00;0.00;0.62;0.00;0.00;0.62;;;;;24.00;1.00;;;;;;2281423;60;1245;-83
2021/08/13 04:04:05;0.00;0.00;0.62;0.00;0.00;0.62;;;;;24.00;1.00;;;;;;2281774;60;1351;-83
2021/08/13 04:06:32;0.00;0.00;0.62;0.00;0.00;0.62;;;;;24.20;1.00;;;;;;2281484;60;2025;-82
2021/08/13 04:08:59;0.00;0.00;0.62;0.00;0.00;0.62;;;;;24.30;1.00;;;;;;2287584;60;1151;-82
2021/08/13 04:11:25;14843.00;0.05;26.34;0.00;0.00;0.62;;;;;23.80;1.00;;;;;;2288419;60;1163;-83
2021/08/13 04:13:52;18651.00;0.06;32.93;0.00;0.00;0.62;;;;;23.50;1.00;;;;;;2284505;60;1305;-82
2021/08/13 04:16:20;89553.00;0.30;155.54;0.00;0.00;0.62;;;;;23.20;1.60;;;;;;2281959;60;1188;-83
2021/08/13 04:18:48;162083.00;0.54;280.63;0.00;0.00;0.62;;;;;23.20;2.10;;;;;;2281822;60;1163;-83
2021/08/13 04:21:15;330164.00;1.10;569.77;94390.00;0.31;163.89;;;;;23.20;2.00;;;;;;2281930;60;1761;-82
2021/08/13 04:23:42;6316.00;0.02;11.57;0.00;0.00;0.62;;;;;23.10;3.10;;;;;;2286976;60;1699;-85
2021/08/13 04:26:09;0.00;0.00;0.62;0.00;0.00;0.62;;;;;22.90;3.00;;;;;;2289171;60;2028;-85
2021/08/13 04:28:36;55255.00;0.18;96.27;0.00;0.00;0.62;;;;;22.80;3.30;;;;;;2284086;60;1165;-82
2021/08/13 04:31:02;77149.00;0.26;134.11;0.00;0.00;0.62;;;;;22.70;4.00;;;;;;2281939;60;1167;-83
2021/08/13 04:33:29;116115.00;0.39;201.38;21987.00;0.07;38.71;;;;;22.70;4.10;;;;;;2281860;60;1360;-84
2021/08/13 04:35:58;61049.00;0.20;106.29;0.00;0.00;0.62;;;;;22.50;4.80;;;;;;2281272;60;1066;-83
2021/08/13 04:38:25;80294.00;0.27;139.55;661.00;0.00;1.77;;;;;22.50;4.80;;;;;;2280637;60;1159;-83
2021/08/13 04:40:52;86985.00;0.29;151.10;20484.00;0.07;36.11;;;;;22.70;4.10;;;;;;2281001;60;1601;-83
2021/08/13 04:43:18;0.00;0.00;0.62;0.00;0.00;0.62;;;;;22.90;3.40;;;;;;2281217;60;1288;-82
2021/08/13 04:45:45;128605.00;0.43;222.92;17969.00;0.06;31.75;;;;;23.10;2.80;;;;;;2281258;60;1226;-82
2021/08/13 04:48:12;220505.00;0.74;381.21;59186.00;0.20;103.07;;;;;23.30;2.40;;;;;;2281168;60;1959;-82
2021/08/13 04:50:39;18696.00;0.06;33.01;0.00;0.00;0.62;;;;;23.50;1.60;;;;;;2281863;60;1167;-82
2021/08/13 04:53:07;0.00;0.00;0.62;0.00;0.00;0.62;;;;;23.60;1.20;;;;;;2277223;60;1295;-83
2021/08/13 04:55:34;0.00;0.00;0.62;0.00;0.00;0.62;;;;;23.30;1.50;;;;;;2282096;60;1079;-82
2021/08/13 04:58:01;0.00;0.00;0.62;0.00;0.00;0.62;;;;;23.30;2.00;;;;;;2281166;60;1164;-83
2021/08/13 05:00:28;44144.00;0.15;77.06;0.00;0.00;0.62;;;;;23.40;2.20;;;;;;2281493;60;1160;-83
2021/08/13 05:02:55;19465.00;0.06;34.34;0.00;0.00;0.62;;;;;23.60;1.40;;;;;;2281919;60;1295;-83
2021/08/13 05:05:22;19361.00;0.06;34.16;0.00;0.00;0.62;;;;;23.70;1.00;;;;;;2282564;60;1218;-82
2021/08/13 05:07:49;29665.00;0.10;52.00;0.00;0.00;0.62;;;;;23.70;1.00;;;;;;2281836;60;1918;-81
2021/08/13 05:10:18;117027176.00;390.09;64920972.00;0.00;0.00;0.62;;;;;24.00;1.00;;;;;;2281757;60;1115;-81
2021/08/13 05:12:46;0.00;0.00;0.62;0.00;0.00;0.62;;;;;24.00;1.00;;;;;;2277916;60;1271;-82
2021/08/13 05:15:14;151401.00;0.50;262.22;31506.00;0.11;55.19;;;;;24.10;1.00;;;;;;2282090;60;1152;-82
2021/08/13 05:17:42;208106.00;0.69;359.88;74036.00;0.25;128.73;;;;;24.10;1.00;;;;;;2277814;60;1196;-81
2021/08/13 05:20:11;0.00;0.00;0.62;0.00;0.00;0.62;;;;;24.20;1.00;;;;;;2282094;60;1088;-81
2021/08/13 05:22:38;0.00;0.00;0.62;0.00;0.00;0.62;;;;;24.50;1.00;;;;;;2280964;60;1205;-82
2021/08/13 05:25:08;44383.00;0.15;77.47;0.00;0.00;0.62;;;;;24.90;1.00;;;;;;2285552;60;1498;-85
2021/08/13 05:27:37;0.00;0.00;0.62;0.00;0.00;0.62;;;;;25.10;1.00;;;;;;2283716;60;2014;-83
2021/08/13 05:30:06;85362.00;0.28;148.30;18806.00;0.06;33.20;;;;;25.50;1.00;;;;;;2285886;60;1263;-83
2021/08/13 05:32:33;117564.00;0.39;203.88;51321.00;0.17;89.47;;;;;25.50;1.00;;;;;;2286393;60;1211;-83
2021/08/13 05:35:00;282551.00;0.94;487.92;17492.00;0.06;30.93;;;;;25.60;1.00;;;;;;2285997;60;1259;-84
2021/08/13 05:37:27;230635.00;0.77;398.64;3452.00;0.01;6.60;;;;;25.70;1.00;;;;;;2286021;60;1084;-84
2021/08/13 05:39:54;446419.00;1.49;769.62;73677.00;0.25;128.11;;;;;26.30;1.00;;;;;;2286538;60;1185;-84
2021/08/13 05:42:21;58425.00;0.19;101.75;0.00;0.00;0.62;;;;;27.00;1.00;;;;;;2287323;60;1120;-85
2021/08/13 05:44:49;297638.00;0.99;513.86;48407.00;0.16;84.43;;;;;27.70;1.00;;;;;;2283085;60;1348;-84
2021/08/13 05:47:18;158238.00;0.53;274.00;0.00;0.00;0.62;;;;;28.50;1.00;;;;;;2287245;60;1992;-85
2021/08/13 05:49:45;128098.00;0.43;222.05;0.00;0.00;0.62;;;;;29.00;1.00;;;;;;2286504;60;1270;-85
2021/08/13 05:52:12;188109.00;0.63;325.45;0.00;0.00;0.62;;;;;29.40;1.00;;;;;;2287287;60;1210;-85
2021/08/13 05:54:39;343547.00;1.15;592.77;240.00;0.00;1.04;;;;;30.00;1.00;;;;;;2287781;60;1445;-87
2021/08/13 05:57:07;421773.00;1.41;727.24;89044.00;0.30;154.66;;;;;30.50;1.00;;;;;;2283374;60;1242;-86
2021/08/13 05:59:34;390358.00;1.30;673.23;86427.00;0.29;150.14;;;;;30.90;1.00;;;;;;2287482;60;1128;-86
2021/08/13 06:02:03;196080.00;0.65;339.18;83507.00;0.28;145.09;;;;;31.30;1.00;;;;;;2287932;60;1076;-85
2021/08/13 06:04:30;157460.00;0.52;272.66;0.00;0.00;0.62;;;;;31.20;1.00;;;;;;2287481;60;1345;-85
2021/08/13 06:06:57;539355.00;1.80;929.61;163510.00;0.55;283.09;;;;;31.40;1.00;;;;;;2285858;60;2012;-85
2021/08/13 06:09:26;330254.00;1.10;569.92;110443.00;0.37;191.59;;;;;31.50;1.00;;;;;;2286728;60;1669;-85
2021/08/13 06:11:53;210705.00;0.70;364.35;0.00;0.00;0.62;;;;;32.00;1.00;;;;;;2279471;60;1215;-84
2021/08/13 06:14:20;264327.00;0.88;456.59;31068.00;0.10;54.43;;;;;32.30;1.00;;;;;;2287159;60;1363;-84
2021/08/13 06:16:47;382215.00;1.27;659.23;66994.00;0.22;116.57;;;;;32.90;1.00;;;;;;2287159;60;1676;-84
2021/08/13 06:19:16;208098.00;0.69;359.86;68074.00;0.23;118.43;;;;;33.60;1.00;;;;;;2287563;60;1072;-85
2021/08/13 06:21:43;266004.00;0.89;459.47;96586.00;0.32;167.68;;;;;34.10;1.00;;;;;;2286784;60;1103;-84
2021/08/13 06:24:10;466477.00;1.55;804.13;40793.00;0.14;71.26;;;;;34.60;1.00;;;;;;2286828;60;1745;-84
2021/08/13 06:26:38;257579.00;0.86;444.99;0.00;0.00;0.62;;;;;34.50;1.00;;;;;;2286843;60;2012;-85
2021/08/13 06:29:05;201722.00;0.67;348.89;86750.00;0.29;150.70;;;;;35.30;1.00;;;;;;2285786;60;1146;-84
2021/08/13 06:31:32;329797.00;1.10;569.14;0.00;0.00;0.62;;;;;35.20;1.00;;;;;;2286975;60;1040;-85
2021/08/13 06:33:59;186738.00;0.62;323.09;36583.00;0.12;63.98;;;;;35.60;1.00;;;;;;2287413;60;1375;-85
2021/08/13 06:36:28;327068.00;1.09;564.45;88764.00;0.30;154.17;;;;;35.70;1.00;;;;;;2287806;60;1270;-87
2021/08/13 06:38:56;191237.00;0.64;330.84;78708.00;0.26;136.81;;;;;35.80;1.00;;;;;;2287979;60;1159;-87
2021/08/13 06:41:23;299121.00;1.00;516.41;68529.00;0.23;119.22;;;;;36.40;1.00;;;;;;2287467;60;1072;-87
2021/08/13 06:43:50;450536.00;1.50;776.70;90661.00;0.30;157.45;;;;;36.40;1.00;;;;;;2287811;60;1369;-86
2021/08/13 06:46:17;187291.00;0.62;324.04;0.00;0.00;0.62;;;;;36.40;1.00;;;;;;2287709;60;1140;-87
2021/08/13 06:48:44;348529.00;1.16;601.33;92285.00;0.31;160.25;;;;;36.30;1.00;;;;;;2287252;60;1931;-86
2021/08/13 06:51:12;335828.00;1.12;579.50;74922.00;0.25;130.26;;;;;36.70;1.00;;;;;;2286785;60;1184;-85
2021/08/13 06:53:43;486278.00;1.62;838.20;40798.00;0.14;71.27;;;;;37.00;1.00;;;;;;2287484;60;1770;-87
2021/08/13 06:56:13;456129.00;1.52;786.33;163103.00;0.54;282.39;;;;;36.70;1.00;;;;;;2283569;61;1171;-87
2021/08/13 06:58:40;381073.00;1.27;657.27;15821.00;0.05;28.03;;;;;37.10;1.00;;;;;;2283441;61;1026;-86
2021/08/13 07:01:07;322452.00;1.07;556.51;36900.00;0.12;64.52;;;;;37.60;1.00;;;;;;2283216;61;1179;-86
2021/08/13 07:03:35;159004.00;0.53;275.32;0.00;0.00;0.62;;;;;37.20;1.00;;;;;;2283389;61;1427;-85
2021/08/13 07:06:04;143347.00;0.48;248.34;0.00;0.00;0.62;;;;;37.10;1.00;;;;;;2283499;61;1140;-86
2021/08/13 07:08:31;210642.00;0.70;364.24;53212.00;0.18;92.74;;;;;36.70;1.00;;;;;;2283696;61;1998;-86
2021/08/13 07:10:59;461622.00;1.54;795.78;79682.00;0.27;138.49;;;;;36.70;1.00;;;;;;2283970;61;1206;-87
2021/08/13 07:13:26;254377.00;0.85;439.48;0.00;0.00;0.62;;;;;36.80;1.00;;;;;;2283661;60;1421;-87
2021/08/13 07:15:53;265733.00;0.89;459.01;0.00;0.00;0.62;;;;;37.00;1.00;;;;;;2288142;60;1517;-87
2021/08/13 07:18:20;213618.00;0.71;369.36;76675.00;0.26;133.29;;;;;37.00;1.00;;;;;;2287125;60;1110;-87
2021/08/13 07:20:47;81610.00;0.27;141.82;0.00;0.00;0.62;;;;;36.90;1.00;;;;;;2278711;60;1099;-87
2021/08/13 07:23:14;288438.00;0.96;498.04;41225.00;0.14;72.01;;;;;36.70;1.00;;;;;;2288571;60;1385;-87
2021/08/13 07:25:41;503455.00;1.68;867.77;192271.00;0.64;332.62;;;;;37.20;1.00;;;;;;2285656;60;1039;-85
2021/08/13 07:28:11;177119.00;0.59;306.53;19353.00;0.06;34.15;;;;;36.40;1.00;;;;;;2282849;60;1938;-84
2021/08/13 07:30:38;300903.00;1.00;519.47;88668.00;0.30;154.01;;;;;36.50;1.00;;;;;;2282658;60;1178;-86
2021/08/13 07:33:05;274071.00;0.91;473.34;35811.00;0.12;62.64;;;;;36.30;1.00;;;;;;2283303;60;1794;-86
2021/08/13 07:35:32;177411.00;0.59;307.03;36291.00;0.12;63.47;;;;;36.20;1.00;;;;;;2282294;60;1197;-84
2021/08/13 07:37:59;300650.00;1.00;519.04;33499.00;0.11;58.64;;;;;36.10;1.00;;;;;;2283091;60;1163;-84
2021/08/13 07:40:26;227850.00;0.76;393.85;0.00;0.00;0.62;;;;;36.40;1.00;;;;;;2283151;60;1378;-85
2021/08/13 07:42:54;159101.00;0.53;275.49;0.00;0.00;0.62;;;;;37.10;1.00;;;;;;2282275;60;1388;-84
2021/08/13 07:45:26;111570.00;0.37;193.54;0.00;0.00;0.62;;;;;36.40;1.00;;;;;;2281807;60;1369;-84
2021/08/13 07:47:53;162993.00;0.54;282.20;0.00;0.00;0.62;;;;;36.00;1.00;;;;;;2282009;60;2016;-85
2021/08/13 07:50:20;246451.00;0.82;425.85;8887.00;0.03;16.02;;;;;36.30;1.00;;;;;;2282884;60;1121;-84
2021/08/13 07:52:49;70147.00;0.23;122.01;0.00;0.00;0.62;;;;;37.10;1.00;;;;;;2282816;60;1373;-86
2021/08/13 07:55:16;332285.00;1.11;573.41;91493.00;0.30;158.89;;;;;37.20;1.00;;;;;;2279763;60;1200;-85
2021/08/13 07:57:44;217198.00;0.72;375.52;86899.00;0.29;150.95;;;;;37.30;1.00;;;;;;2283725;60;1139;-85
2021/08/13 08:00:11;195311.00;0.65;337.85;88583.00;0.30;153.86;;;;;37.40;1.00;;;;;;2283147;60;1098;-86
2021/08/13 08:02:42;156108.00;0.52;270.33;0.00;0.00;0.62;;;;;38.00;1.00;;;;;;2283399;60;1143;-85
2021/08/13 08:05:09;208731.00;0.70;360.95;69920.00;0.23;121.62;;;;;38.70;1.00;;;;;;2284219;60;1168;-85
2021/08/13 08:07:36;173889.00;0.58;300.97;26281.00;0.09;46.15;;;;;38.80;1.00;;;;;;2285756;60;1919;-83
2021/08/13 08:10:04;365848.00;1.22;631.10;0.00;0.00;0.62;;;;;38.70;1.00;;;;;;2286215;60;1664;-85
2021/08/13 08:12:31;195443.00;0.65;338.08;0.00;0.00;0.62;;;;;38.10;1.00;;;;;;2285445;60;1231;-86
2021/08/13 08:14:58;305659.00;1.02;527.65;24651.00;0.08;43.32;;;;;37.80;1.00;;;;;;2286241;60;1705;-85
2021/08/13 08:17:25;100669.00;0.34;174.73;0.00;0.00;0.62;;;;;38.00;1.00;;;;;;2284780;60;1216;-88
2021/08/13 08:19:53;166394.00;0.55;288.05;0.00;0.00;0.62;;;;;38.00;1.00;;;;;;2284757;60;1117;-88
2021/08/13 08:22:21;230781.00;0.77;398.89;0.00;0.00;0.62;;;;;38.20;1.00;;;;;;2286304;60;1081;-88
2021/08/13 08:24:51;477686.00;1.59;823.42;132748.00;0.44;230.07;;;;;38.20;1.00;;;;;;2286219;60;1417;-88
2021/08/13 08:27:18;150005.00;0.50;259.82;0.00;0.00;0.62;;;;;38.10;1.00;;;;;;2286114;60;1986;-86
2021/08/13 08:29:44;187752.00;0.63;324.84;0.00;0.00;0.62;;;;;38.40;1.00;;;;;;2287764;60;1135;-86
2021/08/13 08:32:18;76352.00;0.25;132.74;0.00;0.00;0.62;;;;;38.30;1.00;;;;;;2284585;60;1235;-86
2021/08/13 08:34:45;32813.00;0.11;57.45;0.00;0.00;0.62;;;;;38.80;1.00;;;;;;2288261;60;1598;-86
2021/08/13 08:37:13;132188.00;0.44;229.10;0.00;0.00;0.62;;;;;39.10;1.00;;;;;;2286941;60;1163;-86
2021/08/13 08:39:43;172174.00;0.57;298.01;38542.00;0.13;67.37;;;;;38.90;1.00;;;;;;2286283;60;1080;-86
2021/08/13 08:42:12;0.00;0.00;0.62;0.00;0.00;0.62;;;;;38.00;1.00;;;;;;2287820;60;1418;-86
2021/08/13 08:44:39;212786.00;0.71;367.93;34017.00;0.11;59.54;;;;;37.90;1.00;;;;;;2288060;60;1386;-87
2021/08/13 08:47:09;219188.00;0.73;378.95;0.00;0.00;0.62;;;;;37.70;1.00;;;;;;2287654;60;1132;-87
2021/08/13 08:49:38;161077.00;0.54;278.89;28126.00;0.09;49.34;;;;;37.60;1.00;;;;;;2284190;60;2009;-86
2021/08/13 08:52:07;29874.00;0.10;52.37;0.00;0.00;0.62;;;;;37.30;1.00;;;;;;2284329;60;937;-86
2021/08/13 08:54:37;345864.00;1.15;596.75;34151.00;0.11;59.77;;;;;37.10;1.00;;;;;;2288878;60;1431;-82
2021/08/13 08:57:05;48491.00;0.16;84.58;0.00;0.00;0.62;;;;;36.60;1.00;;;;;;2288963;60;961;-83
2021/08/13 08:59:34;33797.00;0.11;59.15;0.00;0.00;0.62;;;;;36.40;1.00;;;;;;2287367;60;1133;-84
2021/08/13 09:02:01;135812.00;0.45;235.35;0.00;0.00;0.62;;;;;35.90;1.00;;;;;;2287162;60;1238;-85
2021/08/13 09:04:28;241475.00;0.80;417.29;111404.00;0.37;193.25;;;;;35.70;1.00;;;;;;2281020;60;1436;-84
2021/08/13 09:06:55;160053.00;0.53;277.13;13625.00;0.05;24.23;;;;;35.30;1.00;;;;;;2279636;60;1097;-84
2021/08/13 09:09:22;0.00;0.00;0.62;0.00;0.00;0.62;;;;;35.50;1.00;;;;;;2287407;60;1951;-84
2021/08/13 09:11:51;261172.00;0.87;451.16;77589.00;0.26;134.87;;;;;36.10;1.00;;;;;;2279715;60;1177;-85
2021/08/13 09:14:18;77889.00;0.26;135.39;0.00;0.00;0.62;;;;;36.20;1.00;;;;;;2288350;60;1418;-87
2021/08/13 09:17:02;0.00;0.00;0.62;0.00;0.00;0.62;;;;;36.40;1.00;;;;;;2288408;60;1124;-84
2021/08/13 09:19:43;134565.00;0.45;233.20;0.00;0.00;0.62;;;;;36.70;1.00;;;;;;2284019;61;1144;-84
2021/08/13 09:22:13;0.00;0.00;0.62;0.00;0.00;0.62;;;;;36.50;1.00;;;;;;2283941;61;964;-84
2021/08/13 09:24:45;33814.00;0.11;59.18;0.00;0.00;0.62;;;;;36.40;1.00;;;;;;2277726;61;1448;-84
2021/08/13 09:27:25;173171.00;0.58;299.73;0.00;0.00;0.62;;;;;36.40;1.00;;;;;;2279535;61;1156;-84
2021/08/13 09:30:09;0.00;0.00;0.62;0.00;0.00;0.62;;;;;35.60;1.00;;;;;;2279618;61;1998;-84
2021/08/13 09:32:38;0.00;0.00;0.62;0.00;0.00;0.62;;;;;35.50;1.00;;;;;;2278718;61;1248;-84
2021/08/13 09:35:06;35052.00;0.12;61.33;0.00;0.00;0.62;;;;;35.60;1.00;;;;;;2270461;61;1448;-84
2021/08/13 09:37:34;15179.00;0.05;26.92;0.00;0.00;0.62;;;;;35.60;1.00;;;;;;2276601;61;1008;-84
2021/08/13 09:40:01;275306.00;0.92;475.47;22470.00;0.07;39.55;;;;;35.60;1.00;;;;;;2279595;61;1100;-85
2021/08/13 09:42:38;56626.00;0.19;98.64;0.00;0.00;0.62;;;;;35.70;1.00;;;;;;2269813;61;1270;-85
2021/08/13 09:45:08;213601.00;0.71;369.33;0.00;0.00;0.62;;;;;35.90;1.00;;;;;;2283596;60;1370;-85
2021/08/13 09:47:47;59115.00;0.20;102.95;0.00;0.00;0.62;;;;;36.10;1.00;;;;;;2281684;60;969;-86
2021/08/13 09:50:16;0.00;0.00;0.62;0.00;0.00;0.62;;;;;35.90;1.00;;;;;;2285100;60;994;-84
2021/08/13 09:52:43;33841.00;0.11;59.23;0.00;0.00;0.62;;;;;35.50;1.00;;;;;;2284769;60;1087;-84
2021/08/13 09:55:16;48839.00;0.16;85.18;0.00;0.00;0.62;;;;;35.60;1.00;;;;;;2288295;60;1090;-84
2021/08/13 09:57:45;47389.00;0.16;82.67;0.00;0.00;0.62;;;;;35.80;1.00;;;;;;2288678;60;1085;-85
2021/08/13 10:00:14;196933.00;0.66;340.64;55918.00;0.19;97.42;;;;;36.00;1.00;;;;;;2281699;60;1077;-86
2021/08/13 10:02:43;0.00;0.00;0.62;0.00;0.00;0.62;;;;;36.10;1.00;;;;;;2285038;60;975;-85
2021/08/13 10:05:18;0.00;0.00;0.62;0.00;0.00;0.62;;;;;36.20;1.00;;;;;;2284806;60;1060;-84